sensor_id;sensor_type;location;lat;lon;timestamp;P1;durP1;ratioP1;P2;durP2;ratioP2
18905;SDS011;9585;51.018;4.282;2022-07-09T00:00:32;3.13;;;2.65;;
18905;SDS011;9585;51.018;4.282;2022-07-09T00:02:59;2.92;;;2.50;;
18905;SDS011;9585;51.018;4.282;2022-07-09T00:05:28;3.22;;;2.85;;
18905;SDS011;9585;51.018;4.282;2022-07-09T00:07:55;3.45;;;2.60;;
18905;SDS011;9585;51.018;4.282;2022-07-09T00:10:22;5.00;;;3.30;;
18905;SDS011;9585;51.018;4.282;2022-07-09T00:12:50;4.07;;;3.08;;
18905;SDS011;9585;51.018;4.282;2022-07-09T00:15:17;3.47;;;2.95;;
18905;SDS011;9585;51.018;4.282;2022-07-09T00:17:44;3.25;;;2.95;;
18905;SDS011;9585;51.018;4.282;2022-07-09T00:20:11;4.20;;;3.50;;
18905;SDS011;9585;51.018;4.282;2022-07-09T00:22:40;3.80;;;3.50;;
18905;SDS011;9585;51.018;4.282;2022-07-09T00:25:08;4.20;;;3.80;;
18905;SDS011;9585;51.018;4.282;2022-07-09T00:27:36;4.80;;;4.30;;
18905;SDS011;9585;51.018;4.282;2022-07-09T00:30:04;4.28;;;3.83;;
18905;SDS011;9585;51.018;4.282;2022-07-09T00:32:32;4.13;;;3.67;;
18905;SDS011;9585;51.018;4.282;2022-07-09T00:34:59;3.88;;;3.58;;
18905;SDS011;9585;51.018;4.282;2022-07-09T00:37:26;3.92;;;3.53;;
18905;SDS011;9585;51.018;4.282;2022-07-09T00:39:55;4.85;;;3.75;;
18905;SDS011;9585;51.018;4.282;2022-07-09T00:42:22;3.90;;;3.50;;
18905;SDS011;9585;51.018;4.282;2022-07-09T00:44:50;3.65;;;3.35;;
18905;SDS011;9585;51.018;4.282;2022-07-09T00:47:17;5.00;;;3.80;;
18905;SDS011;9585;51.018;4.282;2022-07-09T00:49:45;4.22;;;3.83;;
18905;SDS011;9585;51.018;4.282;2022-07-09T00:52:13;4.35;;;3.97;;
18905;SDS011;9585;51.018;4.282;2022-07-09T00:54:42;4.13;;;3.72;;
18905;SDS011;9585;51.018;4.282;2022-07-09T00:57:12;4.18;;;3.85;;
18905;SDS011;9585;51.018;4.282;2022-07-09T00:59:39;4.55;;;4.10;;
18905;SDS011;9585;51.018;4.282;2022-07-09T01:02:07;4.50;;;4.10;;
18905;SDS011;9585;51.018;4.282;2022-07-09T01:04:35;5.70;;;4.60;;
18905;SDS011;9585;51.018;4.282;2022-07-09T01:07:04;5.10;;;4.60;;
18905;SDS011;9585;51.018;4.282;2022-07-09T01:09:31;4.40;;;4.00;;
18905;SDS011;9585;51.018;4.282;2022-07-09T01:11:59;5.13;;;4.65;;
18905;SDS011;9585;51.018;4.282;2022-07-09T01:14:28;4.75;;;4.35;;
18905;SDS011;9585;51.018;4.282;2022-07-09T01:16:57;6.18;;;4.32;;
18905;SDS011;9585;51.018;4.282;2022-07-09T01:19:25;4.82;;;4.43;;
18905;SDS011;9585;51.018;4.282;2022-07-09T01:21:54;5.25;;;4.82;;
18905;SDS011;9585;51.018;4.282;2022-07-09T01:24:21;5.97;;;5.47;;
18905;SDS011;9585;51.018;4.282;2022-07-09T01:26:49;5.90;;;5.30;;
18905;SDS011;9585;51.018;4.282;2022-07-09T01:29:18;6.07;;;5.45;;
18905;SDS011;9585;51.018;4.282;2022-07-09T01:31:45;5.32;;;4.82;;
18905;SDS011;9585;51.018;4.282;2022-07-09T01:34:12;5.70;;;5.10;;
18905;SDS011;9585;51.018;4.282;2022-07-09T01:36:39;5.43;;;4.93;;
18905;SDS011;9585;51.018;4.282;2022-07-09T01:39:08;5.15;;;4.35;;
18905;SDS011;9585;51.018;4.282;2022-07-09T01:41:35;5.60;;;5.13;;
18905;SDS011;9585;51.018;4.282;2022-07-09T01:44:02;6.72;;;6.13;;
18905;SDS011;9585;51.018;4.282;2022-07-09T01:46:32;6.72;;;6.13;;
18905;SDS011;9585;51.018;4.282;2022-07-09T01:48:59;6.00;;;5.50;;
18905;SDS011;9585;51.018;4.282;2022-07-09T01:51:26;6.10;;;5.57;;
18905;SDS011;9585;51.018;4.282;2022-07-09T01:53:54;5.10;;;4.70;;
18905;SDS011;9585;51.018;4.282;2022-07-09T01:56:23;4.97;;;4.57;;
18905;SDS011;9585;51.018;4.282;2022-07-09T01:58:50;5.70;;;5.07;;
18905;SDS011;9585;51.018;4.282;2022-07-09T02:01:17;5.85;;;5.35;;
18905;SDS011;9585;51.018;4.282;2022-07-09T02:03:45;5.93;;;5.43;;
18905;SDS011;9585;51.018;4.282;2022-07-09T02:06:13;6.68;;;6.18;;
18905;SDS011;9585;51.018;4.282;2022-07-09T02:08:41;7.93;;;7.10;;
18905;SDS011;9585;51.018;4.282;2022-07-09T02:11:08;6.97;;;6.28;;
18905;SDS011;9585;51.018;4.282;2022-07-09T02:13:37;7.40;;;6.70;;
18905;SDS011;9585;51.018;4.282;2022-07-09T02:16:04;6.93;;;6.30;;
18905;SDS011;9585;51.018;4.282;2022-07-09T02:18:33;7.25;;;6.60;;
18905;SDS011;9585;51.018;4.282;2022-07-09T02:21:00;7.32;;;6.72;;
18905;SDS011;9585;51.018;4.282;2022-07-09T02:23:27;7.78;;;6.45;;
18905;SDS011;9585;51.018;4.282;2022-07-09T02:25:55;9.43;;;8.52;;
18905;SDS011;9585;51.018;4.282;2022-07-09T02:28:22;9.10;;;8.30;;
18905;SDS011;9585;51.018;4.282;2022-07-09T02:30:55;8.48;;;7.63;;
18905;SDS011;9585;51.018;4.282;2022-07-09T02:33:25;7.95;;;7.22;;
18905;SDS011;9585;51.018;4.282;2022-07-09T02:35:53;8.18;;;7.47;;
18905;SDS011;9585;51.018;4.282;2022-07-09T02:38:21;7.05;;;6.45;;
18905;SDS011;9585;51.018;4.282;2022-07-09T02:40:48;7.35;;;6.65;;
18905;SDS011;9585;51.018;4.282;2022-07-09T02:43:16;8.30;;;7.50;;
18905;SDS011;9585;51.018;4.282;2022-07-09T02:45:43;7.40;;;6.78;;
18905;SDS011;9585;51.018;4.282;2022-07-09T02:48:12;8.05;;;7.18;;
18905;SDS011;9585;51.018;4.282;2022-07-09T02:50:39;7.53;;;6.82;;
18905;SDS011;9585;51.018;4.282;2022-07-09T02:53:06;8.05;;;7.30;;
18905;SDS011;9585;51.018;4.282;2022-07-09T02:55:34;7.57;;;6.88;;
18905;SDS011;9585;51.018;4.282;2022-07-09T02:58:01;8.07;;;7.38;;
18905;SDS011;9585;51.018;4.282;2022-07-09T03:00:28;8.50;;;7.35;;
18905;SDS011;9585;51.018;4.282;2022-07-09T03:02:56;7.82;;;7.13;;
18905;SDS011;9585;51.018;4.282;2022-07-09T03:05:25;8.68;;;7.80;;
18905;SDS011;9585;51.018;4.282;2022-07-09T03:07:52;8.65;;;7.78;;
18905;SDS011;9585;51.018;4.282;2022-07-09T03:10:20;8.63;;;7.82;;
18905;SDS011;9585;51.018;4.282;2022-07-09T03:12:52;9.60;;;7.80;;
18905;SDS011;9585;51.018;4.282;2022-07-09T03:15:29;7.90;;;7.20;;
18905;SDS011;9585;51.018;4.282;2022-07-09T03:17:56;7.70;;;7.07;;
18905;SDS011;9585;51.018;4.282;2022-07-09T03:20:25;8.38;;;7.68;;
18905;SDS011;9585;51.018;4.282;2022-07-09T03:22:52;7.15;;;6.45;;
18905;SDS011;9585;51.018;4.282;2022-07-09T03:25:20;7.70;;;6.95;;
18905;SDS011;9585;51.018;4.282;2022-07-09T03:27:48;10.60;;;9.60;;
18905;SDS011;9585;51.018;4.282;2022-07-09T03:30:15;10.65;;;9.60;;
18905;SDS011;9585;51.018;4.282;2022-07-09T03:32:42;10.10;;;9.10;;
18905;SDS011;9585;51.018;4.282;2022-07-09T03:35:10;9.27;;;8.48;;
18905;SDS011;9585;51.018;4.282;2022-07-09T03:37:38;9.27;;;8.38;;
18905;SDS011;9585;51.018;4.282;2022-07-09T03:40:06;8.75;;;7.95;;
18905;SDS011;9585;51.018;4.282;2022-07-09T03:42:34;9.50;;;8.68;;
18905;SDS011;9585;51.018;4.282;2022-07-09T03:45:01;8.65;;;7.90;;
18905;SDS011;9585;51.018;4.282;2022-07-09T03:47:29;9.95;;;9.05;;
18905;SDS011;9585;51.018;4.282;2022-07-09T03:49:56;7.55;;;6.85;;
18905;SDS011;9585;51.018;4.282;2022-07-09T03:52:24;7.43;;;6.82;;
18905;SDS011;9585;51.018;4.282;2022-07-09T03:54:53;8.10;;;7.38;;
18905;SDS011;9585;51.018;4.282;2022-07-09T03:57:20;9.98;;;9.00;;
18905;SDS011;9585;51.018;4.282;2022-07-09T03:59:47;10.10;;;9.20;;
18905;SDS011;9585;51.018;4.282;2022-07-09T04:02:15;10.50;;;9.10;;
18905;SDS011;9585;51.018;4.282;2022-07-09T04:04:42;9.48;;;8.52;;
18905;SDS011;9585;51.018;4.282;2022-07-09T04:07:10;10.40;;;9.50;;
18905;SDS011;9585;51.018;4.282;2022-07-09T04:09:37;11.32;;;10.27;;
18905;SDS011;9585;51.018;4.282;2022-07-09T04:12:06;9.80;;;9.00;;
18905;SDS011;9585;51.018;4.282;2022-07-09T04:14:34;9.55;;;8.73;;
18905;SDS011;9585;51.018;4.282;2022-07-09T04:17:02;8.85;;;8.05;;
18905;SDS011;9585;51.018;4.282;2022-07-09T04:19:29;9.85;;;8.98;;
18905;SDS011;9585;51.018;4.282;2022-07-09T04:21:56;8.57;;;7.78;;
18905;SDS011;9585;51.018;4.282;2022-07-09T04:24:23;8.15;;;7.35;;
18905;SDS011;9585;51.018;4.282;2022-07-09T04:26:51;7.50;;;6.80;;
18905;SDS011;9585;51.018;4.282;2022-07-09T04:29:20;7.82;;;7.13;;
18905;SDS011;9585;51.018;4.282;2022-07-09T04:31:47;8.75;;;8.00;;
18905;SDS011;9585;51.018;4.282;2022-07-09T04:34:15;7.03;;;6.43;;
18905;SDS011;9585;51.018;4.282;2022-07-09T04:36:42;7.38;;;6.68;;
18905;SDS011;9585;51.018;4.282;2022-07-09T04:39:09;7.93;;;7.28;;
18905;SDS011;9585;51.018;4.282;2022-07-09T04:41:37;11.13;;;10.15;;
18905;SDS011;9585;51.018;4.282;2022-07-09T04:44:05;11.40;;;10.25;;
18905;SDS011;9585;51.018;4.282;2022-07-09T04:46:34;10.70;;;9.60;;
18905;SDS011;9585;51.018;4.282;2022-07-09T04:49:01;10.85;;;9.77;;
18905;SDS011;9585;51.018;4.282;2022-07-09T04:51:28;10.68;;;9.63;;
18905;SDS011;9585;51.018;4.282;2022-07-09T04:53:56;9.20;;;8.40;;
18905;SDS011;9585;51.018;4.282;2022-07-09T04:56:23;9.52;;;8.63;;
18905;SDS011;9585;51.018;4.282;2022-07-09T04:58:50;8.55;;;7.75;;
18905;SDS011;9585;51.018;4.282;2022-07-09T05:01:18;7.68;;;6.97;;
18905;SDS011;9585;51.018;4.282;2022-07-09T05:03:47;10.35;;;9.35;;
18905;SDS011;9585;51.018;4.282;2022-07-09T05:06:15;11.80;;;10.60;;
18905;SDS011;9585;51.018;4.282;2022-07-09T05:08:43;11.88;;;10.80;;
18905;SDS011;9585;51.018;4.282;2022-07-09T05:11:10;12.95;;;11.75;;
18905;SDS011;9585;51.018;4.282;2022-07-09T05:13:38;13.85;;;12.43;;
18905;SDS011;9585;51.018;4.282;2022-07-09T05:16:06;13.20;;;11.93;;
18905;SDS011;9585;51.018;4.282;2022-07-09T05:18:34;16.00;;;14.30;;
18905;SDS011;9585;51.018;4.282;2022-07-09T05:21:03;12.98;;;11.80;;
18905;SDS011;9585;51.018;4.282;2022-07-09T05:23:31;14.65;;;13.25;;
18905;SDS011;9585;51.018;4.282;2022-07-09T05:25:58;16.83;;;15.23;;
18905;SDS011;9585;51.018;4.282;2022-07-09T05:28:25;14.70;;;13.10;;
18905;SDS011;9585;51.018;4.282;2022-07-09T05:30:54;15.10;;;13.10;;
18905;SDS011;9585;51.018;4.282;2022-07-09T05:33:27;15.38;;;13.85;;
18905;SDS011;9585;51.018;4.282;2022-07-09T05:36:05;18.52;;;13.55;;
18905;SDS011;9585;51.018;4.282;2022-07-09T05:38:34;13.98;;;12.55;;
18905;SDS011;9585;51.018;4.282;2022-07-09T05:41:02;15.95;;;13.88;;
18905;SDS011;9585;51.018;4.282;2022-07-09T05:43:30;13.73;;;12.27;;
18905;SDS011;9585;51.018;4.282;2022-07-09T05:45:57;11.48;;;10.30;;
18905;SDS011;9585;51.018;4.282;2022-07-09T05:48:25;13.13;;;11.68;;
18905;SDS011;9585;51.018;4.282;2022-07-09T05:50:53;11.75;;;10.35;;
18905;SDS011;9585;51.018;4.282;2022-07-09T05:53:22;11.00;;;9.90;;
18905;SDS011;9585;51.018;4.282;2022-07-09T05:55:49;10.43;;;9.38;;
18905;SDS011;9585;51.018;4.282;2022-07-09T05:58:17;10.40;;;9.32;;
18905;SDS011;9585;51.018;4.282;2022-07-09T06:00:44;12.05;;;9.65;;
18905;SDS011;9585;51.018;4.282;2022-07-09T06:03:11;9.25;;;8.38;;
18905;SDS011;9585;51.018;4.282;2022-07-09T06:05:39;9.20;;;8.30;;
18905;SDS011;9585;51.018;4.282;2022-07-09T06:08:06;7.82;;;7.13;;
18905;SDS011;9585;51.018;4.282;2022-07-09T06:10:36;8.75;;;6.90;;
18905;SDS011;9585;51.018;4.282;2022-07-09T06:13:03;10.25;;;7.30;;
18905;SDS011;9585;51.018;4.282;2022-07-09T06:15:31;8.82;;;6.78;;
18905;SDS011;9585;51.018;4.282;2022-07-09T06:17:58;7.18;;;6.10;;
18905;SDS011;9585;51.018;4.282;2022-07-09T06:20:26;6.50;;;5.50;;
18905;SDS011;9585;51.018;4.282;2022-07-09T06:22:54;5.60;;;5.07;;
18905;SDS011;9585;51.018;4.282;2022-07-09T06:25:21;6.03;;;4.38;;
18905;SDS011;9585;51.018;4.282;2022-07-09T06:27:50;5.22;;;4.10;;
18905;SDS011;9585;51.018;4.282;2022-07-09T06:30:17;5.03;;;3.97;;
18905;SDS011;9585;51.018;4.282;2022-07-09T06:32:48;4.57;;;4.00;;
18905;SDS011;9585;51.018;4.282;2022-07-09T06:35:29;4.28;;;3.80;;
18905;SDS011;9585;51.018;4.282;2022-07-09T06:37:56;4.82;;;3.50;;
18905;SDS011;9585;51.018;4.282;2022-07-09T06:40:24;5.32;;;3.53;;
18905;SDS011;9585;51.018;4.282;2022-07-09T06:42:53;4.32;;;3.58;;
18905;SDS011;9585;51.018;4.282;2022-07-09T06:45:20;3.75;;;3.33;;
18905;SDS011;9585;51.018;4.282;2022-07-09T06:47:47;6.00;;;2.90;;
18905;SDS011;9585;51.018;4.282;2022-07-09T06:50:15;4.68;;;3.40;;
18905;SDS011;9585;51.018;4.282;2022-07-09T06:52:42;4.35;;;3.35;;
18905;SDS011;9585;51.018;4.282;2022-07-09T06:55:10;3.75;;;2.90;;
18905;SDS011;9585;51.018;4.282;2022-07-09T06:57:37;3.53;;;3.10;;
18905;SDS011;9585;51.018;4.282;2022-07-09T07:00:07;4.15;;;3.40;;
18905;SDS011;9585;51.018;4.282;2022-07-09T07:02:35;4.68;;;3.70;;
18905;SDS011;9585;51.018;4.282;2022-07-09T07:05:03;4.53;;;3.58;;
18905;SDS011;9585;51.018;4.282;2022-07-09T07:07:31;4.65;;;3.30;;
18905;SDS011;9585;51.018;4.282;2022-07-09T07:10:01;4.07;;;3.00;;
18905;SDS011;9585;51.018;4.282;2022-07-09T07:12:28;6.65;;;3.22;;
18905;SDS011;9585;51.018;4.282;2022-07-09T07:14:56;6.07;;;3.45;;
18905;SDS011;9585;51.018;4.282;2022-07-09T07:17:25;4.80;;;3.85;;
18905;SDS011;9585;51.018;4.282;2022-07-09T07:19:53;5.78;;;4.47;;
18905;SDS011;9585;51.018;4.282;2022-07-09T07:22:20;6.55;;;3.78;;
18905;SDS011;9585;51.018;4.282;2022-07-09T07:24:48;9.15;;;6.80;;
18905;SDS011;9585;51.018;4.282;2022-07-09T07:27:15;7.55;;;5.63;;
18905;SDS011;9585;51.018;4.282;2022-07-09T07:29:42;5.95;;;5.30;;
18905;SDS011;9585;51.018;4.282;2022-07-09T07:32:10;6.85;;;5.13;;
18905;SDS011;9585;51.018;4.282;2022-07-09T07:34:39;5.68;;;4.93;;
18905;SDS011;9585;51.018;4.282;2022-07-09T07:37:06;6.72;;;5.20;;
18905;SDS011;9585;51.018;4.282;2022-07-09T07:39:33;8.93;;;8.13;;
18905;SDS011;9585;51.018;4.282;2022-07-09T07:42:01;8.98;;;7.43;;
18905;SDS011;9585;51.018;4.282;2022-07-09T07:44:32;8.85;;;6.10;;
18905;SDS011;9585;51.018;4.282;2022-07-09T07:46:59;6.13;;;5.35;;
18905;SDS011;9585;51.018;4.282;2022-07-09T07:49:27;9.85;;;7.70;;
18905;SDS011;9585;51.018;4.282;2022-07-09T07:51:56;9.15;;;8.00;;
18905;SDS011;9585;51.018;4.282;2022-07-09T07:54:23;9.80;;;8.50;;
18905;SDS011;9585;51.018;4.282;2022-07-09T07:56:51;10.82;;;9.73;;
18905;SDS011;9585;51.018;4.282;2022-07-09T07:59:19;11.90;;;9.73;;
18905;SDS011;9585;51.018;4.282;2022-07-09T08:01:46;12.18;;;8.48;;
18905;SDS011;9585;51.018;4.282;2022-07-09T08:04:13;9.10;;;7.60;;
18905;SDS011;9585;51.018;4.282;2022-07-09T08:06:41;7.72;;;6.85;;
18905;SDS011;9585;51.018;4.282;2022-07-09T08:09:09;8.05;;;7.25;;
18905;SDS011;9585;51.018;4.282;2022-07-09T08:11:37;8.60;;;7.45;;
18905;SDS011;9585;51.018;4.282;2022-07-09T08:14:04;8.40;;;7.15;;
18905;SDS011;9585;51.018;4.282;2022-07-09T08:16:32;10.20;;;8.35;;
18905;SDS011;9585;51.018;4.282;2022-07-09T08:18:59;8.32;;;6.97;;
18905;SDS011;9585;51.018;4.282;2022-07-09T08:21:27;8.85;;;6.57;;
18905;SDS011;9585;51.018;4.282;2022-07-09T08:23:54;8.48;;;6.35;;
18905;SDS011;9585;51.018;4.282;2022-07-09T08:26:24;8.90;;;8.00;;
18905;SDS011;9585;51.018;4.282;2022-07-09T08:28:51;8.10;;;5.93;;
18905;SDS011;9585;51.018;4.282;2022-07-09T08:31:19;6.55;;;5.65;;
18905;SDS011;9585;51.018;4.282;2022-07-09T08:33:50;8.48;;;6.70;;
18905;SDS011;9585;51.018;4.282;2022-07-09T08:36:20;9.02;;;6.50;;
18905;SDS011;9585;51.018;4.282;2022-07-09T08:38:48;7.15;;;5.82;;
18905;SDS011;9585;51.018;4.282;2022-07-09T08:41:15;7.30;;;6.30;;
18905;SDS011;9585;51.018;4.282;2022-07-09T08:43:50;7.20;;;6.50;;
18905;SDS011;9585;51.018;4.282;2022-07-09T08:46:18;7.93;;;7.03;;
18905;SDS011;9585;51.018;4.282;2022-07-09T08:48:46;10.05;;;7.45;;
18905;SDS011;9585;51.018;4.282;2022-07-09T08:51:14;8.18;;;7.20;;
18905;SDS011;9585;51.018;4.282;2022-07-09T08:53:43;13.18;;;9.15;;
18905;SDS011;9585;51.018;4.282;2022-07-09T08:56:14;11.25;;;7.43;;
18905;SDS011;9585;51.018;4.282;2022-07-09T08:58:44;8.60;;;6.88;;
18905;SDS011;9585;51.018;4.282;2022-07-09T09:01:15;6.75;;;6.13;;
18905;SDS011;9585;51.018;4.282;2022-07-09T09:03:43;10.63;;;9.52;;
18905;SDS011;9585;51.018;4.282;2022-07-09T09:06:11;12.30;;;9.70;;
18905;SDS011;9585;51.018;4.282;2022-07-09T09:08:40;11.18;;;8.93;;
18905;SDS011;9585;51.018;4.282;2022-07-09T09:11:08;10.98;;;9.48;;
18905;SDS011;9585;51.018;4.282;2022-07-09T09:13:40;10.55;;;9.23;;
18905;SDS011;9585;51.018;4.282;2022-07-09T09:16:08;12.32;;;11.20;;
18905;SDS011;9585;51.018;4.282;2022-07-09T09:18:41;12.93;;;11.00;;
18905;SDS011;9585;51.018;4.282;2022-07-09T09:21:09;14.57;;;13.00;;
18905;SDS011;9585;51.018;4.282;2022-07-09T09:23:41;11.52;;;10.00;;
18905;SDS011;9585;51.018;4.282;2022-07-09T09:26:13;12.40;;;11.10;;
18905;SDS011;9585;51.018;4.282;2022-07-09T09:28:45;11.15;;;10.15;;
18905;SDS011;9585;51.018;4.282;2022-07-09T09:31:19;11.98;;;10.60;;
18905;SDS011;9585;51.018;4.282;2022-07-09T09:33:49;15.43;;;13.93;;
18905;SDS011;9585;51.018;4.282;2022-07-09T09:36:27;14.25;;;11.25;;
18905;SDS011;9585;51.018;4.282;2022-07-09T09:39:09;14.52;;;13.20;;
18905;SDS011;9585;51.018;4.282;2022-07-09T09:41:42;15.80;;;13.23;;
18905;SDS011;9585;51.018;4.282;2022-07-09T09:44:11;12.95;;;10.88;;
18905;SDS011;9585;51.018;4.282;2022-07-09T09:46:40;15.77;;;14.18;;
18905;SDS011;9585;51.018;4.282;2022-07-09T09:49:10;11.35;;;9.85;;
18905;SDS011;9585;51.018;4.282;2022-07-09T09:51:43;12.45;;;11.02;;
18905;SDS011;9585;51.018;4.282;2022-07-09T09:54:13;13.75;;;11.32;;
18905;SDS011;9585;51.018;4.282;2022-07-09T09:56:41;10.40;;;9.02;;
18905;SDS011;9585;51.018;4.282;2022-07-09T09:59:09;11.50;;;8.95;;
18905;SDS011;9585;51.018;4.282;2022-07-09T10:01:37;10.38;;;7.82;;
18905;SDS011;9585;51.018;4.282;2022-07-09T10:04:06;9.65;;;7.88;;
18905;SDS011;9585;51.018;4.282;2022-07-09T10:06:36;10.45;;;7.55;;
18905;SDS011;9585;51.018;4.282;2022-07-09T10:09:04;9.65;;;6.90;;
18905;SDS011;9585;51.018;4.282;2022-07-09T10:11:39;8.93;;;6.82;;
18905;SDS011;9585;51.018;4.282;2022-07-09T10:14:08;7.75;;;5.13;;
18905;SDS011;9585;51.018;4.282;2022-07-09T10:16:41;7.70;;;4.15;;
18905;SDS011;9585;51.018;4.282;2022-07-09T10:19:09;6.15;;;3.83;;
18905;SDS011;9585;51.018;4.282;2022-07-09T10:21:39;3.42;;;2.40;;
18905;SDS011;9585;51.018;4.282;2022-07-09T10:24:07;3.38;;;2.15;;
18905;SDS011;9585;51.018;4.282;2022-07-09T10:26:37;23.50;;;3.50;;
18905;SDS011;9585;51.018;4.282;2022-07-09T10:29:19;4.25;;;2.50;;
18905;SDS011;9585;51.018;4.282;2022-07-09T10:31:48;4.70;;;2.50;;
18905;SDS011;9585;51.018;4.282;2022-07-09T10:37:06;3.60;;;1.80;;
18905;SDS011;9585;51.018;4.282;2022-07-09T10:39:34;3.10;;;1.65;;
18905;SDS011;9585;51.018;4.282;2022-07-09T10:42:01;2.83;;;1.23;;
18905;SDS011;9585;51.018;4.282;2022-07-09T10:44:33;3.58;;;1.30;;
18905;SDS011;9585;51.018;4.282;2022-07-09T10:47:02;2.40;;;1.50;;
18905;SDS011;9585;51.018;4.282;2022-07-09T10:49:30;3.00;;;1.58;;
18905;SDS011;9585;51.018;4.282;2022-07-09T10:52:00;4.72;;;1.55;;
18905;SDS011;9585;51.018;4.282;2022-07-09T10:54:29;4.00;;;1.80;;
18905;SDS011;9585;51.018;4.282;2022-07-09T10:56:57;4.75;;;1.20;;
18905;SDS011;9585;51.018;4.282;2022-07-09T10:59:25;2.75;;;1.27;;
18905;SDS011;9585;51.018;4.282;2022-07-09T11:01:54;2.92;;;1.38;;
18905;SDS011;9585;51.018;4.282;2022-07-09T11:04:25;1.98;;;1.30;;
18905;SDS011;9585;51.018;4.282;2022-07-09T11:06:53;1.40;;;1.08;;
18905;SDS011;9585;51.018;4.282;2022-07-09T11:09:20;2.67;;;1.00;;
18905;SDS011;9585;51.018;4.282;2022-07-09T11:11:50;1.85;;;1.05;;
18905;SDS011;9585;51.018;4.282;2022-07-09T11:14:17;2.08;;;1.00;;
18905;SDS011;9585;51.018;4.282;2022-07-09T11:16:52;1.65;;;1.00;;
18905;SDS011;9585;51.018;4.282;2022-07-09T11:19:24;2.13;;;0.98;;
18905;SDS011;9585;51.018;4.282;2022-07-09T11:22:00;2.10;;;0.90;;
18905;SDS011;9585;51.018;4.282;2022-07-09T11:24:28;1.90;;;1.00;;
18905;SDS011;9585;51.018;4.282;2022-07-09T11:26:57;1.50;;;0.75;;
18905;SDS011;9585;51.018;4.282;2022-07-09T11:29:28;1.88;;;1.00;;
18905;SDS011;9585;51.018;4.282;2022-07-09T11:31:56;2.08;;;0.73;;
18905;SDS011;9585;51.018;4.282;2022-07-09T11:34:23;1.35;;;0.80;;
18905;SDS011;9585;51.018;4.282;2022-07-09T11:36:52;0.75;;;0.70;;
18905;SDS011;9585;51.018;4.282;2022-07-09T11:39:23;1.38;;;0.70;;
18905;SDS011;9585;51.018;4.282;2022-07-09T11:41:52;2.90;;;0.90;;
18905;SDS011;9585;51.018;4.282;2022-07-09T11:44:22;2.05;;;0.70;;
18905;SDS011;9585;51.018;4.282;2022-07-09T11:47:06;1.38;;;0.90;;
18905;SDS011;9585;51.018;4.282;2022-07-09T11:49:35;2.35;;;0.90;;
18905;SDS011;9585;51.018;4.282;2022-07-09T11:52:04;1.15;;;0.90;;
18905;SDS011;9585;51.018;4.282;2022-07-09T11:54:53;5.75;;;0.93;;
18905;SDS011;9585;51.018;4.282;2022-07-09T11:57:24;2.60;;;0.70;;
18905;SDS011;9585;51.018;4.282;2022-07-09T11:59:53;2.25;;;0.90;;
18905;SDS011;9585;51.018;4.282;2022-07-09T12:02:24;2.67;;;0.85;;
18905;SDS011;9585;51.018;4.282;2022-07-09T12:04:53;1.33;;;0.90;;
18905;SDS011;9585;51.018;4.282;2022-07-09T12:07:20;3.97;;;0.88;;
18905;SDS011;9585;51.018;4.282;2022-07-09T12:09:56;0.75;;;0.57;;
18905;SDS011;9585;51.018;4.282;2022-07-09T12:12:25;2.13;;;0.70;;
18905;SDS011;9585;51.018;4.282;2022-07-09T12:14:54;1.45;;;0.93;;
18905;SDS011;9585;51.018;4.282;2022-07-09T12:17:26;2.33;;;0.82;;
18905;SDS011;9585;51.018;4.282;2022-07-09T12:19:55;3.25;;;0.88;;
18905;SDS011;9585;51.018;4.282;2022-07-09T12:22:23;2.65;;;0.60;;
18905;SDS011;9585;51.018;4.282;2022-07-09T12:24:51;2.95;;;0.85;;
18905;SDS011;9585;51.018;4.282;2022-07-09T12:27:19;1.33;;;0.65;;
18905;SDS011;9585;51.018;4.282;2022-07-09T12:29:47;1.92;;;0.68;;
18905;SDS011;9585;51.018;4.282;2022-07-09T12:32:16;2.65;;;0.80;;
18905;SDS011;9585;51.018;4.282;2022-07-09T12:34:44;1.25;;;0.90;;
18905;SDS011;9585;51.018;4.282;2022-07-09T12:37:11;2.17;;;0.60;;
18905;SDS011;9585;51.018;4.282;2022-07-09T12:39:39;1.88;;;0.88;;
18905;SDS011;9585;51.018;4.282;2022-07-09T12:42:06;2.08;;;0.70;;
18905;SDS011;9585;51.018;4.282;2022-07-09T12:44:33;1.52;;;0.65;;
18905;SDS011;9585;51.018;4.282;2022-07-09T12:47:01;7.35;;;1.00;;
18905;SDS011;9585;51.018;4.282;2022-07-09T12:49:30;2.80;;;0.90;;
18905;SDS011;9585;51.018;4.282;2022-07-09T12:51:58;1.48;;;0.70;;
18905;SDS011;9585;51.018;4.282;2022-07-09T12:54:25;1.13;;;0.77;;
18905;SDS011;9585;51.018;4.282;2022-07-09T12:56:52;2.72;;;0.88;;
18905;SDS011;9585;51.018;4.282;2022-07-09T12:59:20;2.08;;;0.85;;
18905;SDS011;9585;51.018;4.282;2022-07-09T13:01:47;1.45;;;0.68;;
18905;SDS011;9585;51.018;4.282;2022-07-09T13:04:15;2.45;;;0.90;;
18905;SDS011;9585;51.018;4.282;2022-07-09T13:06:44;1.27;;;0.73;;
18905;SDS011;9585;51.018;4.282;2022-07-09T13:09:11;1.52;;;0.75;;
18905;SDS011;9585;51.018;4.282;2022-07-09T13:11:39;2.70;;;0.90;;
18905;SDS011;9585;51.018;4.282;2022-07-09T13:14:06;1.77;;;0.82;;
18905;SDS011;9585;51.018;4.282;2022-07-09T13:16:34;1.52;;;0.60;;
18905;SDS011;9585;51.018;4.282;2022-07-09T13:19:02;2.17;;;0.80;;
18905;SDS011;9585;51.018;4.282;2022-07-09T13:21:29;2.70;;;0.77;;
18905;SDS011;9585;51.018;4.282;2022-07-09T13:23:58;2.25;;;0.90;;
18905;SDS011;9585;51.018;4.282;2022-07-09T13:26:26;1.58;;;0.70;;
18905;SDS011;9585;51.018;4.282;2022-07-09T13:28:53;1.63;;;0.70;;
18905;SDS011;9585;51.018;4.282;2022-07-09T13:31:22;1.52;;;0.70;;
18905;SDS011;9585;51.018;4.282;2022-07-09T13:33:49;1.08;;;0.52;;
18905;SDS011;9585;51.018;4.282;2022-07-09T13:36:16;2.17;;;0.77;;
18905;SDS011;9585;51.018;4.282;2022-07-09T13:38:44;1.80;;;0.70;;
18905;SDS011;9585;51.018;4.282;2022-07-09T13:41:13;2.97;;;0.75;;
18905;SDS011;9585;51.018;4.282;2022-07-09T13:43:41;2.78;;;0.68;;
18905;SDS011;9585;51.018;4.282;2022-07-09T13:46:11;3.22;;;0.80;;
18905;SDS011;9585;51.018;4.282;2022-07-09T13:48:38;3.38;;;0.80;;
18905;SDS011;9585;51.018;4.282;2022-07-09T13:51:06;2.55;;;0.77;;
18905;SDS011;9585;51.018;4.282;2022-07-09T13:53:33;4.57;;;0.82;;
18905;SDS011;9585;51.018;4.282;2022-07-09T13:56:01;3.80;;;0.90;;
18905;SDS011;9585;51.018;4.282;2022-07-09T13:58:31;2.17;;;0.77;;
18905;SDS011;9585;51.018;4.282;2022-07-09T14:00:59;2.50;;;0.70;;
18905;SDS011;9585;51.018;4.282;2022-07-09T14:03:27;1.92;;;0.75;;
18905;SDS011;9585;51.018;4.282;2022-07-09T14:05:54;2.38;;;0.88;;
18905;SDS011;9585;51.018;4.282;2022-07-09T14:08:21;2.72;;;0.77;;
18905;SDS011;9585;51.018;4.282;2022-07-09T14:10:50;5.20;;;1.00;;
18905;SDS011;9585;51.018;4.282;2022-07-09T14:13:22;2.22;;;0.90;;
18905;SDS011;9585;51.018;4.282;2022-07-09T14:15:52;1.98;;;0.80;;
18905;SDS011;9585;51.018;4.282;2022-07-09T14:18:21;2.05;;;0.90;;
18905;SDS011;9585;51.018;4.282;2022-07-09T14:20:48;3.75;;;0.95;;
18905;SDS011;9585;51.018;4.282;2022-07-09T14:23:16;4.18;;;0.85;;
18905;SDS011;9585;51.018;4.282;2022-07-09T14:25:44;2.38;;;0.93;;
18905;SDS011;9585;51.018;4.282;2022-07-09T14:28:11;3.97;;;1.08;;
18905;SDS011;9585;51.018;4.282;2022-07-09T14:30:39;1.92;;;0.98;;
18905;SDS011;9585;51.018;4.282;2022-07-09T14:33:08;2.80;;;0.90;;
18905;SDS011;9585;51.018;4.282;2022-07-09T14:35:37;3.30;;;0.80;;
18905;SDS011;9585;51.018;4.282;2022-07-09T14:38:04;2.80;;;0.80;;
18905;SDS011;9585;51.018;4.282;2022-07-09T14:40:31;2.67;;;0.70;;
18905;SDS011;9585;51.018;4.282;2022-07-09T14:42:59;1.33;;;0.85;;
18905;SDS011;9585;51.018;4.282;2022-07-09T14:45:26;1.52;;;0.80;;
18905;SDS011;9585;51.018;4.282;2022-07-09T14:47:54;2.25;;;0.90;;
18905;SDS011;9585;51.018;4.282;2022-07-09T14:50:24;2.95;;;1.00;;
18905;SDS011;9585;51.018;4.282;2022-07-09T14:52:51;3.92;;;0.90;;
18905;SDS011;9585;51.018;4.282;2022-07-09T14:55:21;3.60;;;1.00;;
18905;SDS011;9585;51.018;4.282;2022-07-09T14:57:49;3.80;;;1.05;;
18905;SDS011;9585;51.018;4.282;2022-07-09T15:00:16;3.20;;;0.95;;
18905;SDS011;9585;51.018;4.282;2022-07-09T15:02:44;3.65;;;1.10;;
18905;SDS011;9585;51.018;4.282;2022-07-09T15:05:13;2.22;;;0.90;;
18905;SDS011;9585;51.018;4.282;2022-07-09T15:07:42;3.58;;;1.00;;